Time;durP1;ratioP1;P1;durP2;ratioP2;P2;SDS_P1;SDS_P2;PMS_P1;PMS_P2;Temp;Humidity;BMP_temperature;BMP_pressure;BME280_temperature;BME280_humidity;BME280_pressure;Samples;Min_cycle;Max_cycle;Signal;HPM_P1;HPM_P2
2022/05/17 00:04:14;;;;;;;5.72;3.08;;;;;;;15.21;59.86;96461.97;10446226;27;96744;-66
2022/05/17 00:09:18;;;;;;;6.03;2.80;;;;;;;15.43;59.16;96466.47;10446617;27;96762;-66
2022/05/17 00:14:21;;;;;;;6.53;3.13;;;;;;;15.34;59.73;96462.22;10431014;27;100536;-66
2022/05/17 00:19:24;;;;;;;8.73;3.45;;;;;;;14.92;61.34;96458.09;10434457;27;97305;-66
2022/05/17 00:24:29;;;;;;;5.30;2.55;;;;;;;14.81;61.27;96464.56;10448000;27;96821;-66
2022/05/17 00:29:32;;;;;;;5.15;2.80;;;;;;;14.62;62.07;96462.31;10433224;27;96727;-66
2022/05/17 00:34:36;;;;;;;6.03;3.40;;;;;;;14.63;62.15;96458.69;10425237;27;96794;-66
2022/05/17 00:39:40;;;;;;;5.00;3.00;;;;;;;14.52;62.03;96462.47;10409294;27;96893;-66
2022/05/17 00:44:43;;;;;;;4.73;2.90;;;;;;;14.55;61.89;96470.03;10425556;27;97016;-65
2022/05/17 00:49:51;;;;;;;7.63;3.30;;;;;;;14.64;62.14;96455.88;10408901;27;97497;-66
2022/05/17 00:55:00;;;;;;;6.97;3.00;;;;;;;14.70;61.57;96455.22;10409011;27;98659;-65
2022/05/17 01:00:11;;;;;;;6.05;2.45;;;;;;;14.80;62.07;96451.56;10415153;28;100433;-65
2022/05/17 01:05:15;;;;;;;5.05;2.90;;;;;;;14.70;61.74;96464.94;10394356;27;98802;-66
2022/05/17 01:10:20;;;;;;;7.95;2.95;;;;;;;14.67;61.46;96455.56;10402384;27;99230;-66
2022/05/17 01:15:23;;;;;;;;;;;;;;;14.72;61.42;96455.06;10414084;27;96969;-66
2022/05/17 01:20:26;;;;;;;5.93;2.80;;;;;;;14.80;60.56;96459.47;10406225;28;96900;-65
2022/05/17 01:25:33;;;;;;;4.07;2.33;;;;;;;14.92;60.31;96452.84;10405389;27;97769;-66
2022/05/17 01:30:37;;;;;;;5.05;2.70;;;;;;;14.94;60.72;96449.06;10404563;27;99263;-66
2022/05/17 01:35:40;;;;;;;6.18;2.60;;;;;;;15.04;60.31;96454.09;10409336;27;98716;-66
2022/05/17 01:40:44;;;;;;;5.90;2.75;;;;;;;15.05;60.53;96452.31;10408438;27;98029;-66
2022/05/17 01:45:47;;;;;;;6.97;2.70;;;;;;;15.01;61.03;96449.22;10403958;28;99255;-66
2022/05/17 01:50:50;;;;;;;6.20;2.90;;;;;;;15.03;61.31;96449.84;10409660;27;97591;-65
2022/05/17 01:55:54;;;;;;;4.47;2.80;;;;;;;14.72;62.00;96457.69;10400209;27;97647;-66
2022/05/17 02:00:57;;;;;;;4.93;2.90;;;;;;;14.74;61.94;96453.88;10420248;27;96795;-66
2022/05/17 02:06:00;;;;;;;6.13;3.08;;;;;;;14.67;62.03;96452.91;10414162;27;97143;-66
2022/05/17 02:11:04;;;;;;;5.13;3.03;;;;;;;14.47;63.22;96447.22;10413478;27;98446;-66
2022/05/17 02:16:08;;;;;;;4.05;2.90;;;;;;;14.33;63.30;96453.13;10413265;27;97707;-64
2022/05/17 02:21:11;;;;;;;8.60;3.30;;;;;;;14.41;63.77;96454.94;10417254;27;96982;-66
2022/05/17 02:26:16;;;;;;;4.57;2.88;;;;;;;14.33;64.23;96451.34;10412045;27;102439;-66
2022/05/17 02:31:19;;;;;;;4.37;3.00;;;;;;;14.36;63.54;96448.38;10407505;28;97836;-67
2022/05/17 02:36:22;;;;;;;5.40;2.70;;;;;;;14.48;63.33;96450.66;10409983;28;98517;-65
2022/05/17 02:41:30;;;;;;;4.55;2.67;;;;;;;14.40;63.26;96450.66;10404007;28;99028;-66
2022/05/17 02:46:33;;;;;;;5.75;3.00;;;;;;;14.36;63.98;96453.63;10408493;27;96958;-66
2022/05/17 02:51:37;;;;;;;7.30;3.47;;;;;;;14.31;63.81;96447.19;10412527;27;99223;-66
2022/05/17 02:56:41;;;;;;;5.90;2.88;;;;;;;14.41;63.21;96447.88;10407888;27;98890;-66
2022/05/17 03:01:43;;;;;;;8.63;3.20;;;;;;;14.24;64.90;96454.91;10420809;27;98504;-66
2022/05/17 03:06:47;;;;;;;5.93;2.83;;;;;;;13.97;65.73;96449.03;10415751;27;97951;-65
2022/05/17 03:11:51;;;;;;;4.45;2.95;;;;;;;14.03;65.69;96451.97;10411415;27;100659;-66
2022/05/17 03:16:54;;;;;;;6.78;3.13;;;;;;;14.11;65.77;96446.72;10405309;27;98478;-66
2022/05/17 03:21:57;;;;;;;5.55;3.65;;;;;;;13.95;66.03;96450.16;10410078;27;98501;-65
2022/05/17 03:27:01;;;;;;;5.53;3.05;;;;;;;13.94;65.77;96459.84;10416641;27;98349;-66
2022/05/17 03:32:05;;;;;;;5.05;2.67;;;;;;;13.96;65.45;96452.63;10409191;27;98735;-66
2022/05/17 03:37:08;;;;;;;7.35;3.78;;;;;;;14.04;65.68;96458.84;10410943;27;98627;-66
2022/05/17 03:42:13;;;;;;;6.10;3.13;;;;;;;13.97;66.11;96459.53;10415753;27;98372;-66
2022/05/17 03:47:16;;;;;;;4.63;3.28;;;;;;;13.76;67.22;96457.38;10409064;27;99453;-66
2022/05/17 03:52:19;;;;;;;7.78;3.60;;;;;;;13.62;67.57;96450.97;10402995;27;97759;-66
2022/05/17 03:57:23;;;;;;;6.65;4.07;;;;;;;13.68;67.82;96459.19;10402551;27;98337;-67
2022/05/17 04:02:26;;;;;;;6.97;3.53;;;;;;;13.71;67.28;96450.97;10403499;27;97651;-66
2022/05/17 04:07:29;;;;;;;4.15;3.33;;;;;;;13.67;67.44;96447.00;10407920;27;98582;-66
2022/05/17 04:12:33;;;;;;;6.43;3.50;;;;;;;13.69;67.99;96450.28;10404775;27;97580;-65
2022/05/17 04:17:36;;;;;;;6.40;3.50;;;;;;;13.67;67.27;96453.06;10405768;27;97633;-66
2022/05/17 04:22:43;;;;;;;5.65;2.85;;;;;;;13.63;67.68;96459.66;10406335;28;98355;-66
2022/05/17 04:27:47;;;;;;;4.53;2.90;;;;;;;13.71;66.07;96464.09;10410617;28;99212;-66
2022/05/17 04:32:50;;;;;;;8.55;3.80;;;;;;;13.75;67.16;96468.03;10403761;27;98557;-66
2022/05/17 04:37:53;;;;;;;4.97;3.15;;;;;;;13.88;66.58;96476.28;10404854;27;96755;-66
2022/05/17 04:42:57;;;;;;;6.13;3.75;;;;;;;13.84;66.88;96474.13;10405411;27;98554;-66
2022/05/17 04:48:02;;;;;;;5.45;3.10;;;;;;;13.86;67.25;96475.59;10409281;27;96879;-66
2022/05/17 04:53:06;;;;;;;6.00;3.38;;;;;;;13.90;67.58;96474.31;10405875;27;96929;-66
2022/05/17 04:58:10;;;;;;;6.05;3.83;;;;;;;13.79;68.79;96482.47;10405180;28;98519;-66
2022/05/17 05:03:15;;;;;;;5.18;3.50;;;;;;;13.66;68.97;96487.41;10403456;27;99500;-66
2022/05/17 05:08:18;;;;;;;5.67;3.57;;;;;;;13.62;68.91;96500.84;10394477;27;100816;-66
2022/05/17 05:13:26;;;;;;;8.25;3.80;;;;;;;13.63;68.80;96488.53;10410054;27;98686;-67
2022/05/17 05:18:29;;;;;;;7.37;3.53;;;;;;;13.81;69.09;96491.00;10410645;27;98554;-66
2022/05/17 05:23:32;;;;;;;8.90;3.92;;;;;;;14.05;67.95;96492.03;10409979;27;96839;-66
2022/05/17 05:28:37;;;;;;;6.13;3.75;;;;;;;14.15;67.94;96492.69;10411528;27;97239;-66
2022/05/17 05:33:41;;;;;;;;;;;;;;;14.37;67.84;96496.50;10413159;27;98561;-66
2022/05/17 05:38:44;;;;;;;6.53;3.53;;;;;;;14.49;67.78;96497.00;10416099;27;97803;-67
2022/05/17 05:43:49;;;;;;;7.38;3.92;;;;;;;14.71;67.83;96498.94;10414036;28;97168;-66
2022/05/17 05:48:52;;;;;;;8.05;4.00;;;;;;;14.96;67.81;96504.16;10446909;27;96781;-66
2022/05/17 05:53:55;;;;;;;5.97;3.60;;;;;;;15.33;66.24;96502.69;10415062;27;97805;-66
2022/05/17 05:59:00;;;;;;;9.25;3.65;;;;;;;15.67;66.08;96499.78;10415172;27;97818;-65
2022/05/17 06:04:02;;;;;;;7.97;3.28;;;;;;;15.99;65.13;96507.66;10417927;27;98200;-66
2022/05/17 06:09:05;;;;;;;5.57;3.42;;;;;;;16.23;64.33;96510.09;10418849;27;97595;-66
2022/05/17 06:14:10;;;;;;;4.50;3.38;;;;;;;16.46;64.09;96511.91;10405900;27;97506;-66
2022/05/17 06:19:13;;;;;;;8.30;3.92;;;;;;;16.65;63.66;96509.75;10422036;27;96729;-65
2022/05/17 06:24:16;;;;;;;7.25;4.10;;;;;;;16.79;64.40;96507.16;10434371;27;100864;-66
2022/05/17 06:29:20;;;;;;;9.52;4.20;;;;;;;16.85;64.49;96508.28;10410392;27;97767;-66
2022/05/17 06:34:24;;;;;;;10.80;4.30;;;;;;;17.02;64.17;96513.38;10402038;27;97305;-66
2022/05/17 06:39:27;;;;;;;11.20;4.38;;;;;;;17.15;64.09;96513.56;10402494;27;99457;-66
2022/05/17 06:44:32;;;;;;;12.52;4.68;;;;;;;17.25;64.03;96519.41;10409424;27;99396;-66
2022/05/17 06:49:36;;;;;;;9.95;4.80;;;;;;;17.30;63.68;96516.19;10427188;27;96821;-66
2022/05/17 06:54:40;;;;;;;9.02;3.97;;;;;;;17.34;63.17;96502.44;10452925;27;96898;-66
2022/05/17 06:59:46;;;;;;;10.37;4.40;;;;;;;17.44;62.71;96499.53;10417646;27;98999;-66
2022/05/17 07:04:49;;;;;;;7.15;4.10;;;;;;;17.55;62.03;96503.53;10433929;27;96709;-66
2022/05/17 07:15:16;;;;;;;9.13;4.32;;;;;;;17.83;60.88;96500.19;10321150;28;96807;-66
2022/05/17 07:20:20;;;;;;;9.00;3.60;;;;;;;17.99;59.47;96499.16;10317826;28;96939;-66
2022/05/17 07:25:23;;;;;;;7.53;3.72;;;;;;;18.17;59.51;96498.69;10322694;28;97142;-66
2022/05/17 07:30:28;;;;;;;9.55;4.30;;;;;;;18.37;59.40;96501.53;10323003;28;96964;-66
2022/05/17 07:35:31;;;;;;;5.55;3.63;;;;;;;18.53;58.70;96495.16;10317502;28;96955;-66
2022/05/17 07:40:34;;;;;;;6.13;3.78;;;;;;;18.71;58.91;96495.50;10319282;28;96946;-66
2022/05/17 07:45:38;;;;;;;9.13;4.00;;;;;;;18.90;59.50;96494.03;10324643;28;96978;-66
2022/05/17 07:50:41;;;;;;;9.27;3.83;;;;;;;19.08;59.21;96498.81;10361576;27;100067;-67
2022/05/17 07:55:46;;;;;;;11.00;4.15;;;;;;;19.23;59.54;96496.88;10441224;27;98085;-66
2022/05/17 08:00:51;;;;;;;8.02;4.28;;;;;;;19.37;59.71;96481.06;10451185;27;96833;-68
2022/05/17 08:05:53;;;;;;;;;;;;;;;19.50;58.20;96480.28;10440568;27;96979;-67
2022/05/17 08:10:56;;;;;;;5.78;3.55;;;;;;;19.55;58.26;96476.03;10440788;27;99737;-67
2022/05/17 08:16:01;;;;;;;6.00;3.55;;;;;;;19.67;59.25;96480.75;10448916;27;97076;-66
2022/05/17 08:21:05;;;;;;;7.78;4.03;;;;;;;19.84;58.20;96476.75;10442727;27;97117;-66
2022/05/17 08:31:32;;;;;;;7.65;4.15;;;;;;;20.13;58.38;96465.00;10443272;27;96757;-66
2022/05/17 08:36:35;;;;;;;;;;;;;;;20.25;58.11;96469.69;10449427;27;96705;-66
2022/05/17 08:41:42;;;;;;;7.72;3.70;;;;;;;20.32;57.81;96468.69;10439012;27;96814;-66
2022/05/17 08:47:00;;;;;;;5.63;3.30;;;;;;;20.50;56.93;96464.59;10440395;27;96932;-66
2022/05/17 08:52:25;;;;;;;8.77;3.92;;;;;;;20.65;56.32;96465.19;10417669;27;97061;-66
2022/05/17 08:57:32;;;;;;;5.35;3.60;;;;;;;20.75;56.08;96455.00;10433534;27;96832;-66
2022/05/17 09:02:43;;;;;;;6.18;3.50;;;;;;;20.87;56.05;96451.72;10437924;27;102304;-66
2022/05/17 09:07:55;;;;;;;6.60;3.47;;;;;;;21.00;55.79;96445.53;10439291;27;96852;-66
2022/05/17 09:13:05;;;;;;;6.40;3.33;;;;;;;21.22;55.44;96435.47;10416052;27;96836;-66
2022/05/17 09:18:14;;;;;;;7.22;3.25;;;;;;;21.40;55.05;96438.25;10442203;27;96902;-67
2022/05/17 09:23:17;;;;;;;7.07;3.40;;;;;;;21.50;55.23;96438.63;10437639;27;96879;-66
2022/05/17 09:28:23;;;;;;;5.50;3.60;;;;;;;21.62;54.71;96441.47;10442857;27;96943;-66
2022/05/17 09:33:29;;;;;;;7.05;3.47;;;;;;;21.71;54.65;96436.72;10425715;27;97161;-66
2022/05/17 09:38:35;;;;;;;6.93;3.35;;;;;;;21.82;54.40;96432.56;10437450;27;96800;-66
2022/05/17 09:43:45;;;;;;;7.03;3.30;;;;;;;22.07;53.93;96437.91;10425989;27;96995;-66
2022/05/17 09:54:31;;;;;;;7.22;3.40;;;;;;;22.17;53.74;96427.59;10444961;27;96898;-66
2022/05/17 09:59:34;;;;;;;4.45;2.95;;;;;;;22.32;53.09;96423.78;10438308;27;97017;-66
2022/05/17 10:04:43;;;;;;;5.25;3.20;;;;;;;22.48;53.02;96417.97;10439767;27;96967;-66
2022/05/17 10:09:46;;;;;;;6.72;3.55;;;;;;;22.67;52.38;96420.69;10448347;27;96800;-66
2022/05/17 10:14:57;;;;;;;5.65;3.33;;;;;;;22.83;52.54;96414.75;10439110;27;96771;-66
2022/05/17 10:20:07;;;;;;;7.30;3.58;;;;;;;22.91;52.07;96401.16;10436167;27;97154;-66
2022/05/17 10:25:21;;;;;;;6.82;3.42;;;;;;;22.99;52.00;96403.53;10447313;27;96866;-66
2022/05/17 10:30:34;;;;;;;6.72;3.45;;;;;;;23.06;51.68;96397.31;10431269;27;96959;-66
2022/05/17 10:35:43;;;;;;;6.13;3.17;;;;;;;23.20;51.00;96396.09;10443404;27;99954;-66
2022/05/17 10:40:48;;;;;;;6.55;3.55;;;;;;;23.32;51.57;96380.19;10444598;27;97067;-67
2022/05/17 10:46:00;;;;;;;5.93;3.35;;;;;;;23.40;51.33;96376.44;10455432;27;96720;-66
2022/05/17 10:51:13;;;;;;;7.60;3.10;;;;;;;23.53;51.04;96381.56;10447583;27;96910;-67
2022/05/17 10:56:29;;;;;;;6.50;3.87;;;;;;;23.55;50.76;96384.81;10442695;27;96946;-66
2022/05/17 11:01:39;;;;;;;5.45;3.28;;;;;;;23.61;50.73;96375.13;10446392;27;97054;-67
2022/05/17 11:06:54;;;;;;;7.50;3.10;;;;;;;23.81;49.66;96382.81;10453112;27;97000;-66
2022/05/17 11:12:04;;;;;;;;;;;;;;;23.91;49.67;96367.91;10444817;27;96838;-67
2022/05/17 11:17:15;;;;;;;8.00;2.88;;;;;;;23.97;49.02;96360.81;10442155;27;96782;-67
2022/05/17 11:22:27;;;;;;;5.05;2.50;;;;;;;24.15;46.98;96362.59;10447696;27;97039;-66
2022/05/17 11:27:47;;;;;;;3.70;2.60;;;;;;;24.23;46.72;96364.13;10430813;27;97636;-67
2022/05/17 11:33:14;;;;;;;6.72;2.95;;;;;;;24.41;47.17;96349.84;10440460;27;97179;-67
2022/05/17 11:38:43;;;;;;;5.38;2.53;;;;;;;24.45;46.87;96351.84;10440906;27;96842;-67
2022/05/17 11:43:49;;;;;;;5.97;2.90;;;;;;;24.54;46.27;96343.44;10442732;27;96864;-67
2022/05/17 11:48:55;;;;;;;6.38;2.88;;;;;;;24.62;45.94;96335.09;10447911;27;98438;-67
2022/05/17 11:54:01;;;;;;;3.75;2.38;;;;;;;24.65;45.85;96335.44;10444614;27;96824;-67
2022/05/17 11:59:37;;;;;;;4.47;2.63;;;;;;;24.77;45.20;96326.59;10440503;27;96940;-67
2022/05/17 12:04:43;;;;;;;4.55;2.60;;;;;;;24.79;44.68;96314.59;10442119;27;96842;-67
2022/05/17 12:09:51;;;;;;;5.10;2.38;;;;;;;25.06;44.77;96306.91;10451628;27;96834;-67
2022/05/17 12:15:11;;;;;;;4.45;2.30;;;;;;;25.13;43.58;96304.09;10433969;27;96793;-67
2022/05/17 12:20:19;;;;;;;3.90;2.10;;;;;;;25.44;42.37;96300.13;10434108;27;97009;-67
2022/05/17 12:25:29;;;;;;;5.97;2.30;;;;;;;25.68;42.13;96296.50;10444501;27;96947;-67
2022/05/17 12:36:11;;;;;;;5.93;2.80;;;;;;;26.22;42.89;96294.13;10441932;27;96813;-67
2022/05/17 12:46:39;;;;;;;5.57;2.53;;;;;;;26.53;41.69;96279.31;10442221;27;97095;-67
2022/05/17 12:51:43;;;;;;;4.35;2.28;;;;;;;26.72;41.47;96271.78;10445056;27;99833;-67
2022/05/17 12:56:48;;;;;;;8.93;3.17;;;;;;;26.77;41.47;96260.31;10439188;27;96876;-67
2022/05/17 13:01:54;;;;;;;6.95;2.75;;;;;;;26.82;41.31;96263.06;10438182;27;96794;-67
2022/05/17 13:07:12;;;;;;;4.50;2.10;;;;;;;26.83;41.02;96253.97;10417611;27;96945;-67
2022/05/17 13:12:16;;;;;;;4.93;2.00;;;;;;;26.97;41.32;96254.44;10444058;27;96743;-67
2022/05/17 13:17:22;;;;;;;3.97;2.17;;;;;;;27.11;39.92;96247.59;10438708;27;97093;-67
2022/05/17 13:22:26;;;;;;;4.38;2.40;;;;;;;27.20;39.90;96249.84;10442186;27;97001;-67
2022/05/17 13:27:33;;;;;;;7.70;2.53;;;;;;;27.30;38.90;96244.56;10446967;27;96698;-67
2022/05/17 13:32:38;;;;;;;6.25;2.40;;;;;;;27.58;38.61;96242.63;10437023;27;97024;-66
2022/05/17 13:38:08;;;;;;;5.38;2.25;;;;;;;27.65;36.96;96238.72;10439640;27;97067;-67
2022/05/17 13:43:31;;;;;;;4.40;2.00;;;;;;;27.52;37.46;96225.69;10416959;27;96728;-67
2022/05/17 13:48:37;;;;;;;3.53;2.08;;;;;;;27.41;37.37;96216.75;10428254;27;96666;-67
2022/05/17 13:53:44;;;;;;;4.38;2.17;;;;;;;27.38;37.16;96219.94;10436411;27;97025;-67
2022/05/17 13:58:48;;;;;;;4.90;2.20;;;;;;;27.49;36.76;96210.09;10436848;27;96965;-67
2022/05/17 14:04:12;;;;;;;5.15;2.10;;;;;;;27.99;36.03;96208.06;10448931;27;99394;-67
2022/05/17 14:14:37;;;;;;;2.38;1.67;;;;;;;29.93;34.10;96202.38;10435906;27;96717;-67
2022/05/17 14:19:40;;;;;;;3.97;2.10;;;;;;;30.99;32.87;96197.97;10438439;27;96864;-67
2022/05/17 14:24:43;;;;;;;3.65;1.90;;;;;;;32.03;31.31;96196.91;10447397;27;99530;-67
2022/05/17 14:29:48;;;;;;;3.50;1.65;;;;;;;32.99;30.79;96187.91;10436073;27;97649;-68
2022/05/17 14:34:54;;;;;;;4.82;1.90;;;;;;;32.78;29.71;96183.88;10436504;27;99450;-68
2022/05/17 14:39:57;;;;;;;5.93;2.25;;;;;;;32.64;29.69;96179.19;10414901;27;96874;-67
2022/05/17 14:45:02;;;;;;;5.25;2.45;;;;;;;33.17;28.80;96174.69;10436900;27;96905;-67
2022/05/17 14:50:06;;;;;;;3.78;2.10;;;;;;;33.46;28.33;96172.59;10436113;27;96983;-67
2022/05/17 14:55:11;;;;;;;5.30;2.20;;;;;;;33.69;27.86;96172.78;10444187;27;99798;-68
2022/05/17 15:00:19;;;;;;;3.03;1.80;;;;;;;34.14;27.19;96159.53;10440002;27;96969;-68
2022/05/17 15:05:23;;;;;;;7.03;2.10;;;;;;;34.48;26.96;96166.41;10435337;27;96925;-68
2022/05/17 15:10:28;;;;;;;4.13;1.63;;;;;;;34.93;26.97;96152.97;10440139;27;96999;-68
2022/05/17 15:15:33;;;;;;;5.60;1.80;;;;;;;35.18;26.03;96161.63;10451618;27;96687;-68
2022/05/17 15:20:38;;;;;;;4.45;1.60;;;;;;;35.66;25.42;96158.28;10442719;27;97050;-67
2022/05/17 15:25:41;;;;;;;4.88;1.80;;;;;;;35.94;25.35;96151.91;10443926;27;97101;-68
2022/05/17 15:30:46;;;;;;;2.80;1.55;;;;;;;36.43;24.96;96152.72;10452594;27;97837;-68
2022/05/17 15:35:49;;;;;;;4.32;1.70;;;;;;;36.68;24.37;96145.75;10441089;27;96918;-67
2022/05/17 15:40:55;;;;;;;3.00;1.67;;;;;;;36.61;24.42;96153.59;10441905;27;97106;-68
2022/05/17 15:46:02;;;;;;;3.95;1.38;;;;;;;36.82;23.49;96145.63;10420441;27;96871;-67
2022/05/17 15:56:25;;;;;;;5.97;1.50;;;;;;;36.50;24.43;96136.75;10440557;27;97047;-67
2022/05/17 16:01:30;;;;;;;4.78;1.80;;;;;;;36.27;24.76;96146.94;10431918;27;98696;-68
2022/05/17 16:06:33;;;;;;;3.75;1.52;;;;;;;36.35;25.10;96145.38;10391232;27;98406;-68
2022/05/17 16:11:51;;;;;;;3.95;2.20;;;;;;;36.22;25.34;96136.19;10412905;27;96782;-68
2022/05/17 16:16:57;;;;;;;4.20;1.70;;;;;;;35.07;25.36;96141.28;10414766;28;96763;-68
2022/05/17 16:22:08;;;;;;;4.07;1.90;;;;;;;33.86;26.44;96136.16;10413423;27;97063;-68
2022/05/17 16:27:12;;;;;;;3.75;1.80;;;;;;;32.87;27.82;96133.41;10423700;27;96896;-67
2022/05/17 16:32:17;;;;;;;4.00;1.88;;;;;;;31.95;28.45;96141.63;10409923;27;97609;-67
2022/05/17 16:37:20;;;;;;;5.57;2.13;;;;;;;31.14;30.13;96138.53;10405980;28;101318;-67
2022/05/17 16:42:23;;;;;;;5.97;2.08;;;;;;;30.38;31.34;96139.78;10415379;28;97665;-69
2022/05/17 16:47:28;;;;;;;5.75;2.13;;;;;;;29.88;33.06;96134.25;10412262;27;96955;-69
2022/05/17 16:52:31;;;;;;;3.40;2.13;;;;;;;29.46;33.36;96143.47;10400136;28;97543;-69
2022/05/17 16:57:34;;;;;;;3.53;2.05;;;;;;;29.16;33.93;96139.72;10421074;27;96756;-69
2022/05/17 17:02:39;;;;;;;5.25;2.25;;;;;;;28.47;35.15;96146.28;10416468;28;97687;-68
2022/05/17 17:07:42;;;;;;;3.85;2.17;;;;;;;27.96;36.69;96144.16;10413250;27;103347;-68
2022/05/17 17:12:45;;;;;;;3.13;1.95;;;;;;;27.67;37.58;96148.03;10417321;27;98142;-68
2022/05/17 17:17:49;;;;;;;4.30;2.00;;;;;;;27.22;38.87;96143.13;10438103;27;97150;-68
2022/05/17 17:22:54;;;;;;;5.07;2.30;;;;;;;26.77;40.26;96144.28;10430393;27;96971;-68
2022/05/17 17:28:01;;;;;;;4.93;2.60;;;;;;;26.49;41.14;96143.47;10409817;27;97657;-69
2022/05/17 17:38:29;;;;;;;5.57;2.30;;;;;;;25.76;44.03;96152.44;10433218;27;97445;-68
2022/05/17 17:43:33;;;;;;;9.15;2.50;;;;;;;25.35;44.42;96153.66;10440618;27;96895;-69
2022/05/17 17:48:38;;;;;;;6.13;2.10;;;;;;;25.27;44.59;96156.75;10441181;27;98485;-67
2022/05/17 17:53:41;;;;;;;6.22;2.58;;;;;;;25.52;43.80;96159.81;10429475;27;97029;-67
2022/05/17 17:58:45;;;;;;;4.10;2.13;;;;;;;25.61;43.75;96160.25;10419721;27;97131;-68
2022/05/17 18:03:49;;;;;;;;;;;;;;;24.99;43.94;96158.41;10448905;27;97169;-69
2022/05/17 18:08:52;;;;;;;3.38;2.10;;;;;;;24.62;44.26;96159.59;10435736;27;96867;-68
2022/05/17 18:13:55;;;;;;;7.37;2.50;;;;;;;24.52;44.83;96167.44;10426917;27;96880;-68
2022/05/17 18:18:59;;;;;;;9.03;3.83;;;;;;;24.18;45.89;96177.19;10414565;27;97197;-69
2022/05/17 18:24:02;;;;;;;7.30;2.90;;;;;;;24.18;46.09;96174.50;10429031;27;96854;-68
2022/05/17 18:29:08;;;;;;;5.03;2.15;;;;;;;24.13;45.26;96186.69;10436234;27;96938;-68
2022/05/17 18:34:49;;;;;;;4.68;2.30;;;;;;;23.78;46.34;96199.25;10443528;27;96851;-68
2022/05/17 18:39:39;;;;;;;4.72;2.50;;;;;;;23.79;45.59;96192.84;10425462;27;98044;-68
2022/05/17 18:44:42;;;;;;;6.15;2.58;;;;;;;23.84;45.10;96195.63;10429278;27;101988;-68
2022/05/17 18:49:46;;;;;;;4.68;2.80;;;;;;;23.41;45.90;96202.94;10444121;27;97508;-68
2022/05/17 18:54:49;;;;;;;6.82;2.70;;;;;;;23.65;46.00;96211.72;10454469;27;99948;-68
2022/05/17 18:59:53;;;;;;;7.53;2.80;;;;;;;23.39;47.00;96212.97;10441188;27;96843;-68
2022/05/17 19:04:57;;;;;;;5.43;2.60;;;;;;;23.19;47.86;96210.59;10441848;27;96793;-67
2022/05/17 19:15:22;;;;;;;4.22;2.50;;;;;;;23.32;46.84;96231.75;10410511;27;98483;-68
2022/05/17 19:20:28;;;;;;;6.13;2.70;;;;;;;23.22;46.35;96242.13;10436979;27;100493;-68
2022/05/17 19:25:32;;;;;;;8.15;2.83;;;;;;;23.13;47.12;96236.31;10444866;27;97032;-68
2022/05/17 19:30:36;;;;;;;5.22;2.55;;;;;;;23.20;46.56;96244.19;10450855;27;96690;-68
2022/05/17 19:35:41;;;;;;;4.65;2.30;;;;;;;22.98;48.02;96246.56;10441763;27;96999;-68
2022/05/17 19:40:45;;;;;;;7.57;2.72;;;;;;;22.70;48.01;96255.13;10442704;27;96954;-68
2022/05/17 19:45:52;;;;;;;5.05;2.85;;;;;;;22.63;48.77;96272.00;10452821;27;96799;-68
2022/05/17 19:50:56;;;;;;;5.55;3.78;;;;;;;22.56;49.22;96265.94;10440045;27;96806;-68
2022/05/17 19:55:59;;;;;;;5.13;3.08;;;;;;;22.64;48.97;96275.47;10431037;27;96877;-68
2022/05/17 20:01:02;;;;;;;7.78;3.13;;;;;;;22.22;49.78;96270.78;10434126;27;96799;-67
2022/05/17 20:06:07;;;;;;;4.63;2.50;;;;;;;22.02;49.96;96283.44;10443705;27;98055;-68
2022/05/17 20:11:13;;;;;;;7.00;2.63;;;;;;;22.00;49.53;96288.19;10440278;27;97950;-68
2022/05/17 20:16:15;;;;;;;4.72;2.70;;;;;;;21.85;49.69;96291.19;10446134;27;96744;-68
2022/05/17 20:21:23;;;;;;;4.73;2.60;;;;;;;21.73;49.58;96299.06;10416074;27;98216;-68
2022/05/17 20:26:26;;;;;;;6.22;2.95;;;;;;;21.60;50.00;96296.47;10436303;27;97002;-67
2022/05/17 20:31:29;;;;;;;8.77;4.47;;;;;;;21.54;50.45;96300.00;10442855;27;97140;-67
2022/05/17 20:36:34;;;;;;;4.05;2.30;;;;;;;21.42;50.13;96292.69;10448869;27;96846;-67
2022/05/17 20:41:37;;;;;;;4.90;2.60;;;;;;;21.03;51.26;96294.59;10438444;27;96785;-67
2022/05/17 20:52:02;;;;;;;7.88;3.90;;;;;;;20.74;52.30;96317.97;10427489;27;99064;-67
2022/05/17 20:57:05;;;;;;;;;;;;;;;20.77;51.55;96322.03;10442404;27;96889;-67
2022/05/17 21:02:10;;;;;;;6.25;3.10;;;;;;;20.82;51.87;96324.06;10438274;27;96781;-67
2022/05/17 21:07:17;;;;;;;5.85;3.08;;;;;;;20.85;51.95;96323.66;10444642;27;97225;-68
2022/05/17 21:12:20;;;;;;;5.65;2.60;;;;;;;20.55;53.59;96335.56;10400478;27;97686;-69
2022/05/17 21:17:24;;;;;;;7.95;2.85;;;;;;;20.16;54.99;96341.75;10413215;27;97066;-69
2022/05/17 21:22:29;;;;;;;4.65;2.50;;;;;;;20.09;53.92;96338.28;10431409;27;96957;-69
2022/05/17 21:27:34;;;;;;;5.85;2.78;;;;;;;20.02;54.28;96340.13;10442610;27;96841;-69
2022/05/17 21:32:37;;;;;;;4.72;2.42;;;;;;;19.79;55.11;96351.94;10417859;27;97113;-67
2022/05/17 21:37:45;;;;;;;3.17;2.20;;;;;;;19.69;54.78;96354.16;10407658;27;96847;-69
2022/05/17 21:42:48;;;;;;;5.03;2.58;;;;;;;19.60;54.91;96364.94;10419924;27;97351;-68
2022/05/17 21:47:51;;;;;;;6.77;2.87;;;;;;;19.54;54.63;96370.22;10423445;27;96974;-69
2022/05/17 21:52:56;;;;;;;3.28;2.20;;;;;;;19.60;54.47;96364.94;10386681;27;97966;-67
2022/05/17 21:58:01;;;;;;;7.05;2.95;;;;;;;19.49;54.08;96362.06;10400026;27;101210;-72
2022/05/17 22:03:06;;;;;;;4.43;2.60;;;;;;;19.32;54.72;96366.94;10400669;27;97122;-71
2022/05/17 22:08:11;;;;;;;5.05;2.65;;;;;;;18.99;56.28;96363.16;10406788;27;98080;-70
2022/05/17 22:18:34;;;;;;;4.35;2.33;;;;;;;19.03;55.50;96367.03;10408584;28;97677;-70
2022/05/17 22:23:39;;;;;;;5.93;2.20;;;;;;;18.97;55.93;96361.72;10418393;27;96946;-70
2022/05/17 22:28:42;;;;;;;;;;;;;;;18.83;55.45;96372.22;10414912;27;97411;-70
2022/05/17 22:33:45;;;;;;;6.88;2.38;;;;;;;18.96;55.03;96368.03;10415243;27;96915;-71
2022/05/17 22:38:49;;;;;;;5.22;2.50;;;;;;;19.11;55.65;96360.75;10415139;27;97079;-71
2022/05/17 22:43:52;;;;;;;5.25;2.05;;;;;;;19.20;55.19;96359.56;10420082;27;96808;-71
2022/05/17 22:48:55;;;;;;;5.03;2.50;;;;;;;19.00;55.90;96369.25;10416703;28;97068;-71
2022/05/17 22:54:01;;;;;;;5.45;3.05;;;;;;;18.61;57.29;96365.38;10411917;28;97719;-68
2022/05/17 22:59:04;;;;;;;3.53;2.55;;;;;;;18.47;57.43;96373.22;10413814;27;98789;-70
2022/05/17 23:04:07;;;;;;;7.50;2.50;;;;;;;18.59;57.00;96372.69;10413570;27;97762;-69
2022/05/17 23:09:11;;;;;;;4.10;3.08;;;;;;;18.41;58.16;96381.97;10408757;27;100595;-70
2022/05/17 23:14:14;;;;;;;;;;;;;;;18.19;57.38;96380.38;10414631;28;96883;-70
2022/05/17 23:19:17;;;;;;;3.63;2.88;;;;;;;17.87;59.03;96379.91;10410310;27;96932;-70
2022/05/17 23:29:38;;;;;;;4.20;2.40;;;;;;;17.85;59.20;96387.19;10418021;27;96925;-70
2022/05/17 23:34:41;;;;;;;3.92;2.80;;;;;;;17.96;58.87;96388.50;10413669;27;98344;-70
2022/05/17 23:39:45;;;;;;;6.65;2.70;;;;;;;17.97;58.74;96384.88;10413444;28;98919;-70
2022/05/17 23:44:48;;;;;;;5.78;3.40;;;;;;;17.57;60.65;96387.91;10409210;27;97936;-70
2022/05/17 23:49:51;;;;;;;4.32;2.75;;;;;;;17.13;61.74;96394.97;10411560;27;96843;-71
2022/05/17 23:54:55;;;;;;;4.43;2.17;;;;;;;16.89;61.81;96385.53;10425740;27;97234;-69
2022/05/17 23:59:58;;;;;;;4.00;2.38;;;;;;;16.77;62.25;96387.00;10413161;27;96775;-70
